sensor_id;sensor_type;location;lat;lon;timestamp;temperature;humidity
1377;DHT22;682;52.502;13.488;2023-05-07T00:00:56;10.10;1.00
1377;DHT22;682;52.502;13.488;2023-05-07T00:03:25;10.20;1.00
1377;DHT22;682;52.502;13.488;2023-05-07T00:05:54;10.20;1.00
1377;DHT22;682;52.502;13.488;2023-05-07T00:08:21;10.30;1.00
1377;DHT22;682;52.502;13.488;2023-05-07T00:10:48;10.30;1.00
1377;DHT22;682;52.502;13.488;2023-05-07T00:13:15;10.30;1.00
1377;DHT22;682;52.502;13.488;2023-05-07T00:15:42;10.30;1.00
1377;DHT22;682;52.502;13.488;2023-05-07T00:18:09;10.30;1.00
1377;DHT22;682;52.502;13.488;2023-05-07T00:20:36;10.20;1.00
1377;DHT22;682;52.502;13.488;2023-05-07T00:23:04;10.20;1.00
1377;DHT22;682;52.502;13.488;2023-05-07T00:25:31;10.20;1.00
1377;DHT22;682;52.502;13.488;2023-05-07T00:27:59;10.20;1.00
1377;DHT22;682;52.502;13.488;2023-05-07T00:30:29;10.10;1.00
1377;DHT22;682;52.502;13.488;2023-05-07T00:32:56;10.10;1.00
1377;DHT22;682;52.502;13.488;2023-05-07T00:35:23;10.20;1.00
1377;DHT22;682;52.502;13.488;2023-05-07T00:37:51;10.10;1.00
1377;DHT22;682;52.502;13.488;2023-05-07T00:40:20;9.90;1.00
1377;DHT22;682;52.502;13.488;2023-05-07T00:42:47;9.90;1.00
1377;DHT22;682;52.502;13.488;2023-05-07T00:45:14;9.80;1.00
1377;DHT22;682;52.502;13.488;2023-05-07T00:47:43;9.70;1.00
1377;DHT22;682;52.502;13.488;2023-05-07T00:50:11;9.80;1.00
1377;DHT22;682;52.502;13.488;2023-05-07T00:52:39;9.80;1.00
1377;DHT22;682;52.502;13.488;2023-05-07T00:55:10;9.90;1.00
1377;DHT22;682;52.502;13.488;2023-05-07T00:57:40;9.90;1.00
1377;DHT22;682;52.502;13.488;2023-05-07T01:00:12;9.90;1.00
1377;DHT22;682;52.502;13.488;2023-05-07T01:02:40;10.00;1.00
1377;DHT22;682;52.502;13.488;2023-05-07T01:05:09;10.00;1.00
1377;DHT22;682;52.502;13.488;2023-05-07T01:07:39;10.00;1.00
1377;DHT22;682;52.502;13.488;2023-05-07T01:10:07;10.10;1.00
1377;DHT22;682;52.502;13.488;2023-05-07T01:12:36;10.10;1.00
1377;DHT22;682;52.502;13.488;2023-05-07T01:15:08;10.10;1.00
1377;DHT22;682;52.502;13.488;2023-05-07T01:17:35;10.10;1.00
1377;DHT22;682;52.502;13.488;2023-05-07T01:20:04;10.10;1.00
1377;DHT22;682;52.502;13.488;2023-05-07T01:22:34;10.10;1.00
1377;DHT22;682;52.502;13.488;2023-05-07T01:25:03;10.20;1.00
1377;DHT22;682;52.502;13.488;2023-05-07T01:27:30;10.20;1.00
1377;DHT22;682;52.502;13.488;2023-05-07T01:29:59;10.10;1.00
1377;DHT22;682;52.502;13.488;2023-05-07T01:32:31;10.10;1.00
1377;DHT22;682;52.502;13.488;2023-05-07T01:35:01;10.00;1.00
1377;DHT22;682;52.502;13.488;2023-05-07T01:37:29;10.00;1.00
1377;DHT22;682;52.502;13.488;2023-05-07T01:39:59;10.10;1.00
1377;DHT22;682;52.502;13.488;2023-05-07T01:42:29;10.10;1.00
1377;DHT22;682;52.502;13.488;2023-05-07T01:44:56;10.10;1.00
1377;DHT22;682;52.502;13.488;2023-05-07T01:47:24;10.00;1.00
1377;DHT22;682;52.502;13.488;2023-05-07T01:49:52;10.00;1.00
1377;DHT22;682;52.502;13.488;2023-05-07T01:52:22;10.00;1.00
1377;DHT22;682;52.502;13.488;2023-05-07T01:54:50;10.00;1.00
1377;DHT22;682;52.502;13.488;2023-05-07T01:57:22;10.10;1.00
1377;DHT22;682;52.502;13.488;2023-05-07T01:59:50;10.10;1.00
1377;DHT22;682;52.502;13.488;2023-05-07T02:02:19;10.10;1.00
1377;DHT22;682;52.502;13.488;2023-05-07T02:04:48;10.10;1.00
1377;DHT22;682;52.502;13.488;2023-05-07T02:07:15;10.10;1.00
1377;DHT22;682;52.502;13.488;2023-05-07T02:09:42;10.10;1.00
1377;DHT22;682;52.502;13.488;2023-05-07T02:12:09;10.10;1.00
1377;DHT22;682;52.502;13.488;2023-05-07T02:14:37;10.10;1.00
1377;DHT22;682;52.502;13.488;2023-05-07T02:17:04;10.10;1.00
1377;DHT22;682;52.502;13.488;2023-05-07T02:19:31;10.20;1.00
1377;DHT22;682;52.502;13.488;2023-05-07T02:21:59;10.20;1.00
1377;DHT22;682;52.502;13.488;2023-05-07T02:24:26;10.10;1.00
1377;DHT22;682;52.502;13.488;2023-05-07T02:26:53;10.10;1.00
1377;DHT22;682;52.502;13.488;2023-05-07T02:29:20;10.10;1.00
1377;DHT22;682;52.502;13.488;2023-05-07T02:31:49;10.10;1.00
1377;DHT22;682;52.502;13.488;2023-05-07T02:34:18;10.10;1.00
1377;DHT22;682;52.502;13.488;2023-05-07T02:36:45;9.90;1.00
1377;DHT22;682;52.502;13.488;2023-05-07T02:39:12;9.90;1.00
1377;DHT22;682;52.502;13.488;2023-05-07T02:41:39;9.90;1.00
1377;DHT22;682;52.502;13.488;2023-05-07T02:44:06;9.90;1.00
1377;DHT22;682;52.502;13.488;2023-05-07T02:46:34;10.00;1.00
1377;DHT22;682;52.502;13.488;2023-05-07T02:49:03;10.00;1.00
1377;DHT22;682;52.502;13.488;2023-05-07T02:51:31;10.00;1.00
1377;DHT22;682;52.502;13.488;2023-05-07T02:53:59;10.00;1.00
1377;DHT22;682;52.502;13.488;2023-05-07T02:56:26;10.00;1.00
1377;DHT22;682;52.502;13.488;2023-05-07T02:58:54;10.10;1.00
1377;DHT22;682;52.502;13.488;2023-05-07T03:01:21;10.00;1.00
1377;DHT22;682;52.502;13.488;2023-05-07T03:03:48;10.00;1.00
1377;DHT22;682;52.502;13.488;2023-05-07T03:06:16;9.90;1.00
1377;DHT22;682;52.502;13.488;2023-05-07T03:08:44;10.00;1.00
1377;DHT22;682;52.502;13.488;2023-05-07T03:11:11;10.00;1.00
1377;DHT22;682;52.502;13.488;2023-05-07T03:13:38;9.90;1.00
1377;DHT22;682;52.502;13.488;2023-05-07T03:16:06;9.90;1.00
1377;DHT22;682;52.502;13.488;2023-05-07T03:18:33;9.90;1.00
1377;DHT22;682;52.502;13.488;2023-05-07T03:21:00;9.90;1.00
1377;DHT22;682;52.502;13.488;2023-05-07T03:23:28;9.90;1.00
1377;DHT22;682;52.502;13.488;2023-05-07T03:25:55;9.80;1.00
1377;DHT22;682;52.502;13.488;2023-05-07T03:28:22;9.90;1.00
1377;DHT22;682;52.502;13.488;2023-05-07T03:30:49;9.90;1.00
1377;DHT22;682;52.502;13.488;2023-05-07T03:33:16;9.90;1.00
1377;DHT22;682;52.502;13.488;2023-05-07T03:35:43;9.90;1.00
1377;DHT22;682;52.502;13.488;2023-05-07T03:38:11;9.90;1.00
1377;DHT22;682;52.502;13.488;2023-05-07T03:40:39;9.90;1.00
1377;DHT22;682;52.502;13.488;2023-05-07T03:43:07;10.00;1.00
1377;DHT22;682;52.502;13.488;2023-05-07T03:45:34;10.10;1.00
1377;DHT22;682;52.502;13.488;2023-05-07T03:48:01;10.00;1.00
1377;DHT22;682;52.502;13.488;2023-05-07T03:50:28;9.90;1.00
1377;DHT22;682;52.502;13.488;2023-05-07T03:52:55;9.90;1.00
1377;DHT22;682;52.502;13.488;2023-05-07T03:55:22;9.90;1.00
1377;DHT22;682;52.502;13.488;2023-05-07T03:57:50;9.90;1.00
1377;DHT22;682;52.502;13.488;2023-05-07T04:00:17;9.80;1.00
1377;DHT22;682;52.502;13.488;2023-05-07T04:02:45;9.70;1.00
1377;DHT22;682;52.502;13.488;2023-05-07T04:05:14;9.80;1.00
1377;DHT22;682;52.502;13.488;2023-05-07T04:07:43;9.80;1.00
1377;DHT22;682;52.502;13.488;2023-05-07T04:10:11;9.80;1.00
1377;DHT22;682;52.502;13.488;2023-05-07T04:12:39;9.70;1.00
1377;DHT22;682;52.502;13.488;2023-05-07T04:15:08;9.70;1.00
1377;DHT22;682;52.502;13.488;2023-05-07T04:17:35;9.70;1.00
1377;DHT22;682;52.502;13.488;2023-05-07T04:20:03;9.70;1.00
1377;DHT22;682;52.502;13.488;2023-05-07T04:22:30;9.70;1.00
1377;DHT22;682;52.502;13.488;2023-05-07T04:24:56;9.70;1.00
1377;DHT22;682;52.502;13.488;2023-05-07T04:27:23;9.70;1.00
1377;DHT22;682;52.502;13.488;2023-05-07T04:29:50;9.70;1.00
1377;DHT22;682;52.502;13.488;2023-05-07T04:32:22;9.80;1.00
1377;DHT22;682;52.502;13.488;2023-05-07T04:34:51;9.90;1.00
1377;DHT22;682;52.502;13.488;2023-05-07T04:37:18;9.90;1.00
1377;DHT22;682;52.502;13.488;2023-05-07T04:39:45;9.90;1.00
1377;DHT22;682;52.502;13.488;2023-05-07T04:42:14;9.80;1.00
1377;DHT22;682;52.502;13.488;2023-05-07T04:44:41;9.80;1.00
1377;DHT22;682;52.502;13.488;2023-05-07T04:47:08;9.80;1.00
1377;DHT22;682;52.502;13.488;2023-05-07T04:49:37;9.80;1.00
1377;DHT22;682;52.502;13.488;2023-05-07T04:52:04;9.80;1.00
1377;DHT22;682;52.502;13.488;2023-05-07T04:54:31;9.80;1.00
1377;DHT22;682;52.502;13.488;2023-05-07T04:56:58;9.90;1.00
1377;DHT22;682;52.502;13.488;2023-05-07T04:59:26;9.90;1.00
1377;DHT22;682;52.502;13.488;2023-05-07T05:01:53;10.00;1.00
1377;DHT22;682;52.502;13.488;2023-05-07T05:04:22;10.10;1.00
1377;DHT22;682;52.502;13.488;2023-05-07T05:06:51;10.20;1.00
1377;DHT22;682;52.502;13.488;2023-05-07T05:09:18;10.30;1.00
1377;DHT22;682;52.502;13.488;2023-05-07T05:11:45;10.30;1.00
1377;DHT22;682;52.502;13.488;2023-05-07T05:14:12;10.30;1.00
1377;DHT22;682;52.502;13.488;2023-05-07T05:16:40;10.40;1.00
1377;DHT22;682;52.502;13.488;2023-05-07T05:19:07;10.40;1.00
1377;DHT22;682;52.502;13.488;2023-05-07T05:21:34;10.40;1.00
1377;DHT22;682;52.502;13.488;2023-05-07T05:24:03;10.30;1.00
1377;DHT22;682;52.502;13.488;2023-05-07T05:26:30;10.10;1.00
1377;DHT22;682;52.502;13.488;2023-05-07T05:28:57;9.90;1.00
1377;DHT22;682;52.502;13.488;2023-05-07T05:31:25;9.90;1.00
1377;DHT22;682;52.502;13.488;2023-05-07T05:33:54;10.10;1.00
1377;DHT22;682;52.502;13.488;2023-05-07T05:36:21;10.20;1.00
1377;DHT22;682;52.502;13.488;2023-05-07T05:38:48;10.30;1.00
1377;DHT22;682;52.502;13.488;2023-05-07T05:41:17;10.30;1.00
1377;DHT22;682;52.502;13.488;2023-05-07T05:43:44;10.30;1.00
1377;DHT22;682;52.502;13.488;2023-05-07T05:46:11;10.20;1.00
1377;DHT22;682;52.502;13.488;2023-05-07T05:48:41;10.40;1.00
1377;DHT22;682;52.502;13.488;2023-05-07T05:51:20;10.50;1.00
1377;DHT22;682;52.502;13.488;2023-05-07T05:53:48;10.50;1.00
1377;DHT22;682;52.502;13.488;2023-05-07T05:56:17;10.50;1.00
1377;DHT22;682;52.502;13.488;2023-05-07T05:58:45;10.50;1.00
1377;DHT22;682;52.502;13.488;2023-05-07T06:01:12;10.60;1.00
1377;DHT22;682;52.502;13.488;2023-05-07T06:03:39;10.60;1.00
1377;DHT22;682;52.502;13.488;2023-05-07T06:06:06;10.70;1.00
1377;DHT22;682;52.502;13.488;2023-05-07T06:08:34;10.70;1.00
1377;DHT22;682;52.502;13.488;2023-05-07T06:11:02;10.80;1.00
1377;DHT22;682;52.502;13.488;2023-05-07T06:13:33;10.90;1.00
1377;DHT22;682;52.502;13.488;2023-05-07T06:16:00;11.10;1.00
1377;DHT22;682;52.502;13.488;2023-05-07T06:18:29;11.30;1.00
1377;DHT22;682;52.502;13.488;2023-05-07T06:20:58;11.40;1.00
1377;DHT22;682;52.502;13.488;2023-05-07T06:23:26;11.30;1.00
1377;DHT22;682;52.502;13.488;2023-05-07T06:25:55;11.20;1.00
1377;DHT22;682;52.502;13.488;2023-05-07T06:28:24;11.20;1.00
1377;DHT22;682;52.502;13.488;2023-05-07T06:30:52;11.20;1.00
1377;DHT22;682;52.502;13.488;2023-05-07T06:33:20;11.30;1.00
1377;DHT22;682;52.502;13.488;2023-05-07T06:35:48;11.40;1.00
1377;DHT22;682;52.502;13.488;2023-05-07T06:38:17;11.50;1.00
1377;DHT22;682;52.502;13.488;2023-05-07T06:40:49;11.60;1.00
1377;DHT22;682;52.502;13.488;2023-05-07T06:43:16;11.30;1.00
1377;DHT22;682;52.502;13.488;2023-05-07T06:45:45;11.30;1.00
1377;DHT22;682;52.502;13.488;2023-05-07T06:48:14;11.40;1.00
1377;DHT22;682;52.502;13.488;2023-05-07T06:50:43;11.50;1.00
1377;DHT22;682;52.502;13.488;2023-05-07T06:53:11;11.80;1.00
1377;DHT22;682;52.502;13.488;2023-05-07T06:55:38;11.80;1.00
1377;DHT22;682;52.502;13.488;2023-05-07T06:58:05;11.70;1.00
1377;DHT22;682;52.502;13.488;2023-05-07T07:00:32;11.80;1.00
1377;DHT22;682;52.502;13.488;2023-05-07T07:03:02;11.80;1.00
1377;DHT22;682;52.502;13.488;2023-05-07T07:05:31;12.10;1.00
1377;DHT22;682;52.502;13.488;2023-05-07T07:07:59;12.20;1.00
1377;DHT22;682;52.502;13.488;2023-05-07T07:10:26;12.20;1.00
1377;DHT22;682;52.502;13.488;2023-05-07T07:12:55;12.00;1.00
1377;DHT22;682;52.502;13.488;2023-05-07T07:15:23;12.20;1.00
1377;DHT22;682;52.502;13.488;2023-05-07T07:17:51;12.20;1.00
1377;DHT22;682;52.502;13.488;2023-05-07T07:20:18;12.40;1.00
1377;DHT22;682;52.502;13.488;2023-05-07T07:22:48;12.50;1.00
1377;DHT22;682;52.502;13.488;2023-05-07T07:25:16;12.80;1.00
1377;DHT22;682;52.502;13.488;2023-05-07T07:27:44;13.00;1.00
1377;DHT22;682;52.502;13.488;2023-05-07T07:30:12;13.30;1.00
1377;DHT22;682;52.502;13.488;2023-05-07T07:32:39;13.30;1.00
1377;DHT22;682;52.502;13.488;2023-05-07T07:35:09;13.40;1.00
1377;DHT22;682;52.502;13.488;2023-05-07T07:37:36;13.50;1.00
1377;DHT22;682;52.502;13.488;2023-05-07T07:40:10;13.20;1.00
1377;DHT22;682;52.502;13.488;2023-05-07T07:42:38;12.70;1.00
1377;DHT22;682;52.502;13.488;2023-05-07T07:45:10;12.70;1.00
1377;DHT22;682;52.502;13.488;2023-05-07T07:47:39;12.60;1.00
1377;DHT22;682;52.502;13.488;2023-05-07T07:50:07;12.80;1.00
1377;DHT22;682;52.502;13.488;2023-05-07T07:52:38;13.00;1.00
1377;DHT22;682;52.502;13.488;2023-05-07T07:55:10;13.20;1.00
1377;DHT22;682;52.502;13.488;2023-05-07T07:57:39;13.40;1.00
1377;DHT22;682;52.502;13.488;2023-05-07T08:00:06;13.40;1.00
1377;DHT22;682;52.502;13.488;2023-05-07T08:02:34;13.40;1.00
1377;DHT22;682;52.502;13.488;2023-05-07T08:05:06;13.40;1.00
1377;DHT22;682;52.502;13.488;2023-05-07T08:07:37;13.50;1.00
1377;DHT22;682;52.502;13.488;2023-05-07T08:10:08;13.60;1.00
1377;DHT22;682;52.502;13.488;2023-05-07T08:12:36;13.70;1.00
1377;DHT22;682;52.502;13.488;2023-05-07T08:15:03;13.70;1.00
1377;DHT22;682;52.502;13.488;2023-05-07T08:17:36;13.90;1.00
1377;DHT22;682;52.502;13.488;2023-05-07T08:20:03;13.90;1.00
1377;DHT22;682;52.502;13.488;2023-05-07T08:22:31;14.30;1.00
1377;DHT22;682;52.502;13.488;2023-05-07T08:24:58;14.40;1.00
1377;DHT22;682;52.502;13.488;2023-05-07T08:27:29;14.60;1.00
1377;DHT22;682;52.502;13.488;2023-05-07T08:29:56;14.90;1.00
1377;DHT22;682;52.502;13.488;2023-05-07T08:32:24;15.00;1.00
1377;DHT22;682;52.502;13.488;2023-05-07T08:34:52;14.90;1.00
1377;DHT22;682;52.502;13.488;2023-05-07T08:37:23;14.60;1.00
1377;DHT22;682;52.502;13.488;2023-05-07T08:39:50;14.80;1.00
1377;DHT22;682;52.502;13.488;2023-05-07T08:42:17;14.90;1.00
1377;DHT22;682;52.502;13.488;2023-05-07T08:44:46;15.00;1.00
1377;DHT22;682;52.502;13.488;2023-05-07T08:47:13;15.10;1.00
1377;DHT22;682;52.502;13.488;2023-05-07T08:49:43;15.20;1.00
1377;DHT22;682;52.502;13.488;2023-05-07T08:52:12;15.20;1.00
1377;DHT22;682;52.502;13.488;2023-05-07T08:54:40;15.20;1.00
1377;DHT22;682;52.502;13.488;2023-05-07T08:57:07;15.20;1.00
1377;DHT22;682;52.502;13.488;2023-05-07T08:59:36;15.00;1.00
1377;DHT22;682;52.502;13.488;2023-05-07T09:02:07;15.10;1.00
1377;DHT22;682;52.502;13.488;2023-05-07T09:04:37;15.30;1.00
1377;DHT22;682;52.502;13.488;2023-05-07T09:07:04;15.20;1.00
1377;DHT22;682;52.502;13.488;2023-05-07T09:09:33;15.30;1.00
1377;DHT22;682;52.502;13.488;2023-05-07T09:12:03;15.60;1.00
1377;DHT22;682;52.502;13.488;2023-05-07T09:14:31;15.80;1.00
1377;DHT22;682;52.502;13.488;2023-05-07T09:17:02;16.00;1.00
1377;DHT22;682;52.502;13.488;2023-05-07T09:19:33;16.20;1.00
1377;DHT22;682;52.502;13.488;2023-05-07T09:22:02;16.20;1.00
1377;DHT22;682;52.502;13.488;2023-05-07T09:24:29;16.60;1.00
1377;DHT22;682;52.502;13.488;2023-05-07T09:27:00;17.10;1.00
1377;DHT22;682;52.502;13.488;2023-05-07T09:29:29;17.10;1.00
1377;DHT22;682;52.502;13.488;2023-05-07T09:32:03;17.00;1.00
1377;DHT22;682;52.502;13.488;2023-05-07T09:34:31;17.40;1.00
1377;DHT22;682;52.502;13.488;2023-05-07T09:36:59;17.70;1.00
1377;DHT22;682;52.502;13.488;2023-05-07T09:39:39;18.00;1.00
1377;DHT22;682;52.502;13.488;2023-05-07T09:42:07;17.60;1.00
1377;DHT22;682;52.502;13.488;2023-05-07T09:44:37;17.50;1.00
1377;DHT22;682;52.502;13.488;2023-05-07T09:47:06;17.80;1.00
1377;DHT22;682;52.502;13.488;2023-05-07T09:49:37;18.10;1.00
1377;DHT22;682;52.502;13.488;2023-05-07T09:52:05;18.00;1.00
1377;DHT22;682;52.502;13.488;2023-05-07T09:54:34;17.70;1.00
1377;DHT22;682;52.502;13.488;2023-05-07T09:57:04;17.50;1.00
1377;DHT22;682;52.502;13.488;2023-05-07T09:59:32;18.10;1.00
1377;DHT22;682;52.502;13.488;2023-05-07T10:02:03;19.00;1.00
1377;DHT22;682;52.502;13.488;2023-05-07T10:04:32;19.70;1.00
1377;DHT22;682;52.502;13.488;2023-05-07T10:07:03;20.90;1.00
1377;DHT22;682;52.502;13.488;2023-05-07T10:09:31;21.80;1.00
1377;DHT22;682;52.502;13.488;2023-05-07T10:11:59;20.60;1.00
1377;DHT22;682;52.502;13.488;2023-05-07T10:14:30;20.00;1.00
1377;DHT22;682;52.502;13.488;2023-05-07T10:16:58;19.90;1.00
1377;DHT22;682;52.502;13.488;2023-05-07T10:19:26;20.60;1.00
1377;DHT22;682;52.502;13.488;2023-05-07T10:22:04;21.30;1.00
1377;DHT22;682;52.502;13.488;2023-05-07T10:24:33;20.90;1.00
1377;DHT22;682;52.502;13.488;2023-05-07T10:27:02;20.50;1.00
1377;DHT22;682;52.502;13.488;2023-05-07T10:29:35;20.20;1.00
1377;DHT22;682;52.502;13.488;2023-05-07T10:32:19;19.60;1.00
1377;DHT22;682;52.502;13.488;2023-05-07T10:34:54;20.20;1.00
1377;DHT22;682;52.502;13.488;2023-05-07T10:37:24;19.00;1.00
1377;DHT22;682;52.502;13.488;2023-05-07T10:39:51;18.50;1.00
1377;DHT22;682;52.502;13.488;2023-05-07T10:42:21;18.10;1.00
1377;DHT22;682;52.502;13.488;2023-05-07T10:44:49;18.30;1.00
1377;DHT22;682;52.502;13.488;2023-05-07T10:47:17;18.30;1.00
1377;DHT22;682;52.502;13.488;2023-05-07T10:50:20;18.30;1.00
1377;DHT22;682;52.502;13.488;2023-05-07T10:53:24;18.00;1.00
1377;DHT22;682;52.502;13.488;2023-05-07T10:56:24;18.10;1.00
1377;DHT22;682;52.502;13.488;2023-05-07T10:58:54;19.60;1.00
1377;DHT22;682;52.502;13.488;2023-05-07T11:01:50;19.90;1.00
1377;DHT22;682;52.502;13.488;2023-05-07T11:04:17;19.60;1.00
1377;DHT22;682;52.502;13.488;2023-05-07T11:07:27;19.60;1.00
1377;DHT22;682;52.502;13.488;2023-05-07T11:09:57;19.80;1.00
1377;DHT22;682;52.502;13.488;2023-05-07T11:12:53;19.70;1.00
1377;DHT22;682;52.502;13.488;2023-05-07T11:15:45;19.30;1.00
1377;DHT22;682;52.502;13.488;2023-05-07T11:18:14;19.80;1.00
1377;DHT22;682;52.502;13.488;2023-05-07T11:20:46;20.20;1.00
1377;DHT22;682;52.502;13.488;2023-05-07T11:26:20;23.30;1.00
1377;DHT22;682;52.502;13.488;2023-05-07T11:28:47;23.80;1.00
1377;DHT22;682;52.502;13.488;2023-05-07T11:31:21;23.70;1.00
1377;DHT22;682;52.502;13.488;2023-05-07T11:33:48;23.40;1.00
1377;DHT22;682;52.502;13.488;2023-05-07T11:36:16;23.10;1.00
1377;DHT22;682;52.502;13.488;2023-05-07T11:38:43;22.40;1.00
1377;DHT22;682;52.502;13.488;2023-05-07T11:41:11;22.60;1.00
1377;DHT22;682;52.502;13.488;2023-05-07T11:43:53;23.00;1.00
1377;DHT22;682;52.502;13.488;2023-05-07T11:46:21;22.70;1.00
1377;DHT22;682;52.502;13.488;2023-05-07T11:48:48;22.40;1.00
1377;DHT22;682;52.502;13.488;2023-05-07T11:51:19;22.50;1.00
1377;DHT22;682;52.502;13.488;2023-05-07T11:53:47;22.50;1.00
1377;DHT22;682;52.502;13.488;2023-05-07T11:56:15;22.20;1.00
1377;DHT22;682;52.502;13.488;2023-05-07T11:58:47;22.40;1.00
1377;DHT22;682;52.502;13.488;2023-05-07T12:01:16;22.00;1.00
1377;DHT22;682;52.502;13.488;2023-05-07T12:03:45;21.80;1.00
1377;DHT22;682;52.502;13.488;2023-05-07T12:06:14;20.30;1.00
1377;DHT22;682;52.502;13.488;2023-05-07T12:08:43;21.00;1.00
1377;DHT22;682;52.502;13.488;2023-05-07T12:11:21;22.60;1.00
1377;DHT22;682;52.502;13.488;2023-05-07T12:13:58;22.50;1.00
1377;DHT22;682;52.502;13.488;2023-05-07T12:16:29;23.10;1.00
1377;DHT22;682;52.502;13.488;2023-05-07T12:18:58;23.10;1.00
1377;DHT22;682;52.502;13.488;2023-05-07T12:21:25;22.10;1.00
1377;DHT22;682;52.502;13.488;2023-05-07T12:23:52;21.80;1.00
1377;DHT22;682;52.502;13.488;2023-05-07T12:26:28;21.70;1.00
1377;DHT22;682;52.502;13.488;2023-05-07T12:28:58;23.20;1.00
1377;DHT22;682;52.502;13.488;2023-05-07T12:31:26;23.80;1.00
1377;DHT22;682;52.502;13.488;2023-05-07T12:33:56;25.60;1.00
1377;DHT22;682;52.502;13.488;2023-05-07T12:36:23;26.60;1.00
1377;DHT22;682;52.502;13.488;2023-05-07T12:38:51;27.20;1.00
1377;DHT22;682;52.502;13.488;2023-05-07T12:41:18;27.20;1.00
1377;DHT22;682;52.502;13.488;2023-05-07T12:43:59;28.60;1.00
1377;DHT22;682;52.502;13.488;2023-05-07T12:46:27;29.40;1.00
1377;DHT22;682;52.502;13.488;2023-05-07T12:48:56;27.80;1.00
1377;DHT22;682;52.502;13.488;2023-05-07T12:51:23;26.70;1.00
1377;DHT22;682;52.502;13.488;2023-05-07T12:53:50;25.40;1.00
1377;DHT22;682;52.502;13.488;2023-05-07T12:56:17;24.90;1.00
1377;DHT22;682;52.502;13.488;2023-05-07T12:58:44;24.90;1.00
1377;DHT22;682;52.502;13.488;2023-05-07T13:01:13;25.60;1.00
1377;DHT22;682;52.502;13.488;2023-05-07T13:03:41;24.80;1.00
1377;DHT22;682;52.502;13.488;2023-05-07T13:06:09;23.80;1.00
1377;DHT22;682;52.502;13.488;2023-05-07T13:08:38;23.60;1.00
1377;DHT22;682;52.502;13.488;2023-05-07T13:11:09;24.20;1.00
1377;DHT22;682;52.502;13.488;2023-05-07T13:13:38;25.60;1.00
1377;DHT22;682;52.502;13.488;2023-05-07T13:16:07;25.60;1.00
1377;DHT22;682;52.502;13.488;2023-05-07T13:18:35;24.10;1.00
1377;DHT22;682;52.502;13.488;2023-05-07T13:21:03;23.20;1.00
1377;DHT22;682;52.502;13.488;2023-05-07T13:23:30;23.30;1.00
1377;DHT22;682;52.502;13.488;2023-05-07T13:25:57;24.80;1.00
1377;DHT22;682;52.502;13.488;2023-05-07T13:28:24;26.40;1.00
1377;DHT22;682;52.502;13.488;2023-05-07T13:30:52;25.90;1.00
1377;DHT22;682;52.502;13.488;2023-05-07T13:33:20;24.30;1.00
1377;DHT22;682;52.502;13.488;2023-05-07T13:35:48;23.30;1.00
1377;DHT22;682;52.502;13.488;2023-05-07T13:38:15;22.20;1.00
1377;DHT22;682;52.502;13.488;2023-05-07T13:40:43;22.90;1.00
1377;DHT22;682;52.502;13.488;2023-05-07T13:43:10;23.40;1.00
1377;DHT22;682;52.502;13.488;2023-05-07T13:45:40;24.00;1.00
1377;DHT22;682;52.502;13.488;2023-05-07T13:48:07;23.00;1.00
1377;DHT22;682;52.502;13.488;2023-05-07T13:50:34;22.30;1.00
1377;DHT22;682;52.502;13.488;2023-05-07T13:53:02;23.00;1.00
1377;DHT22;682;52.502;13.488;2023-05-07T13:55:29;24.20;1.00
1377;DHT22;682;52.502;13.488;2023-05-07T13:57:57;23.70;1.00
1377;DHT22;682;52.502;13.488;2023-05-07T14:00:24;22.90;1.00
1377;DHT22;682;52.502;13.488;2023-05-07T14:02:51;22.10;1.00
1377;DHT22;682;52.502;13.488;2023-05-07T14:05:19;21.40;1.00
1377;DHT22;682;52.502;13.488;2023-05-07T14:07:46;21.80;1.00
1377;DHT22;682;52.502;13.488;2023-05-07T14:10:16;22.80;1.00
1377;DHT22;682;52.502;13.488;2023-05-07T14:12:44;23.10;1.00
1377;DHT22;682;52.502;13.488;2023-05-07T14:15:11;22.30;1.00
1377;DHT22;682;52.502;13.488;2023-05-07T14:17:38;22.00;1.00
1377;DHT22;682;52.502;13.488;2023-05-07T14:20:06;21.30;1.00
1377;DHT22;682;52.502;13.488;2023-05-07T14:22:33;20.60;1.00
1377;DHT22;682;52.502;13.488;2023-05-07T14:25:00;20.00;1.00
1377;DHT22;682;52.502;13.488;2023-05-07T14:27:28;20.80;1.00
1377;DHT22;682;52.502;13.488;2023-05-07T14:29:55;21.60;1.00
1377;DHT22;682;52.502;13.488;2023-05-07T14:32:22;20.40;1.00
1377;DHT22;682;52.502;13.488;2023-05-07T14:34:50;19.60;1.00
1377;DHT22;682;52.502;13.488;2023-05-07T14:37:17;19.10;1.00
1377;DHT22;682;52.502;13.488;2023-05-07T14:39:45;18.80;1.00
1377;DHT22;682;52.502;13.488;2023-05-07T14:42:15;18.40;1.00
1377;DHT22;682;52.502;13.488;2023-05-07T14:44:43;18.60;1.00
1377;DHT22;682;52.502;13.488;2023-05-07T14:47:12;20.80;1.00
1377;DHT22;682;52.502;13.488;2023-05-07T14:49:39;23.40;1.00
1377;DHT22;682;52.502;13.488;2023-05-07T14:52:07;24.10;1.00
1377;DHT22;682;52.502;13.488;2023-05-07T14:54:36;23.70;1.00
1377;DHT22;682;52.502;13.488;2023-05-07T14:57:06;24.70;1.00
1377;DHT22;682;52.502;13.488;2023-05-07T14:59:33;25.70;1.00
1377;DHT22;682;52.502;13.488;2023-05-07T15:02:02;25.60;1.00
1377;DHT22;682;52.502;13.488;2023-05-07T15:04:36;25.30;1.00
1377;DHT22;682;52.502;13.488;2023-05-07T15:07:07;23.70;1.00
1377;DHT22;682;52.502;13.488;2023-05-07T15:09:34;22.30;1.00
1377;DHT22;682;52.502;13.488;2023-05-07T15:12:01;21.30;1.00
1377;DHT22;682;52.502;13.488;2023-05-07T15:14:29;20.80;1.00
1377;DHT22;682;52.502;13.488;2023-05-07T15:16:56;20.50;1.00
1377;DHT22;682;52.502;13.488;2023-05-07T15:19:25;20.10;1.00
1377;DHT22;682;52.502;13.488;2023-05-07T15:21:55;19.90;1.00
1377;DHT22;682;52.502;13.488;2023-05-07T15:24:23;20.50;1.00
1377;DHT22;682;52.502;13.488;2023-05-07T15:26:51;20.40;1.00
1377;DHT22;682;52.502;13.488;2023-05-07T15:29:18;20.40;1.00
1377;DHT22;682;52.502;13.488;2023-05-07T15:31:46;21.20;1.00
1377;DHT22;682;52.502;13.488;2023-05-07T15:34:13;21.80;1.00
1377;DHT22;682;52.502;13.488;2023-05-07T15:36:45;21.50;1.00
1377;DHT22;682;52.502;13.488;2023-05-07T15:39:12;20.40;1.00
1377;DHT22;682;52.502;13.488;2023-05-07T15:41:39;19.60;1.00
1377;DHT22;682;52.502;13.488;2023-05-07T15:44:06;19.40;1.00
1377;DHT22;682;52.502;13.488;2023-05-07T15:46:33;19.30;1.00
1377;DHT22;682;52.502;13.488;2023-05-07T15:49:02;20.20;1.00
1377;DHT22;682;52.502;13.488;2023-05-07T15:51:29;21.50;1.00
1377;DHT22;682;52.502;13.488;2023-05-07T15:53:59;22.30;1.00
1377;DHT22;682;52.502;13.488;2023-05-07T15:56:26;22.70;1.00
1377;DHT22;682;52.502;13.488;2023-05-07T15:58:54;22.70;1.00
1377;DHT22;682;52.502;13.488;2023-05-07T16:01:22;23.00;1.00
1377;DHT22;682;52.502;13.488;2023-05-07T16:03:49;23.20;1.00
1377;DHT22;682;52.502;13.488;2023-05-07T16:06:16;23.80;1.00
1377;DHT22;682;52.502;13.488;2023-05-07T16:08:43;24.50;1.00
1377;DHT22;682;52.502;13.488;2023-05-07T16:11:11;23.90;1.00
1377;DHT22;682;52.502;13.488;2023-05-07T16:13:39;22.90;1.00
1377;DHT22;682;52.502;13.488;2023-05-07T16:16:06;22.70;1.00
1377;DHT22;682;52.502;13.488;2023-05-07T16:18:33;21.80;1.00
1377;DHT22;682;52.502;13.488;2023-05-07T16:21:01;20.50;1.00
1377;DHT22;682;52.502;13.488;2023-05-07T16:23:29;19.20;1.00
1377;DHT22;682;52.502;13.488;2023-05-07T16:25:56;18.30;1.00
1377;DHT22;682;52.502;13.488;2023-05-07T16:28:25;17.90;1.00
1377;DHT22;682;52.502;13.488;2023-05-07T16:30:52;17.60;1.00
1377;DHT22;682;52.502;13.488;2023-05-07T16:33:19;17.80;1.00